Terminal Aerodrome Forecast
Issued by NWS

Home | Current Version | Previous Version | Text Only | Print | Product List | Glossary On
Versions: 1 2 3 4 5 6 7 8 9 10 11 12 13 14 15 16 17 18 19 20 21 22 23 24 25 26 27 28 29 30 31 32
000
FTUS43 KGRB 110522
TAFRHI
TAF
KRHI 110522Z 1106/1206 36006KT P6SM OVC025
     FM111000 28004KT P6SM SCT025 OVC035
      TEMPO 1110/1114 BKN025
     FM111600 27008KT P6SM SKC
     FM112200 25006KT P6SM BKN080=

USA.gov is the U.S. government's official web portal to all federal, state and local government web resources and services.